Time;durP1;ratioP1;P1;durP2;ratioP2;P2;SDS_P1;SDS_P2;PMS_P1;PMS_P2;Temp;Humidity;BMP_temperature;BMP_pressure;BME280_temperature;BME280_humidity;BME280_pressure;Samples;Min_cycle;Max_cycle;Signal;HPM_P1;HPM_P2
2022/10/12 00:00:11;;;;;;;;;;;;;;;;;;5060218;28;2984;-70
2022/10/12 00:02:37;;;;;;;;;;;;;;;;;;5056781;28;5041;-71
2022/10/12 00:05:02;;;;;;;;;;;;;;;;;;5070928;28;5121;-70
2022/10/12 00:07:28;;;;;;;;;;;;;;;;;;5064480;28;5144;-70
2022/10/12 00:09:53;;;;;;;;;;;;;;;;;;5069225;28;5111;-70
2022/10/12 00:12:18;;;;;;;;;;;;;;;;;;5070117;28;5010;-70
2022/10/12 00:14:43;;;;;;;;;;;;;;;;;;5071672;28;1138;-70
2022/10/12 00:17:08;;;;;;;;;;;;;;;;;;5062414;28;4655;-70
2022/10/12 00:19:34;;;;;;;;;;;;;;;;;;5040675;28;5068;-70
2022/10/12 00:21:59;;;;;;;;;;;;;;;;;;5065053;28;5037;-69
2022/10/12 00:24:24;;;;;;;;;;;;;;;;;;5050980;28;5230;-70
2022/10/12 00:26:50;;;;;;;;;;;;;;;;;;5068766;28;4533;-69
2022/10/12 00:29:15;;;;;;;;;;;;;;;;;;5061818;28;4821;-70
2022/10/12 00:31:40;;;;;;;;;;;;;;;;;;5067127;28;5177;-69
2022/10/12 00:34:05;;;;;;;;;;;;;;;;;;5053197;28;5058;-70
2022/10/12 00:36:32;;;;;;;;;;;;;;;;;;5057851;28;5137;-70
2022/10/12 00:38:58;;;;;;;;;;;;;;;;;;5045112;28;3227;-70
2022/10/12 00:41:24;;;;;;;;;;;;;;;;;;5056634;28;4540;-70
2022/10/12 00:43:49;;;;;;;;;;;;;;;;;;5038674;28;4965;-70
2022/10/12 00:46:33;;;;;;;;;;;;;;;;;;5059511;28;5028;-70
2022/10/12 00:48:59;;;;;;;;;;;;;;;;;;5062500;28;4972;-70
2022/10/12 00:51:24;;;;;;;;;;;;;;;;;;5058931;28;4443;-71
2022/10/12 00:53:51;;;;;;;;;;;;;;;;;;5054808;28;1173;-70
2022/10/12 00:56:17;;;;;;;;;;;;;;;;;;5063123;28;4614;-70
2022/10/12 00:58:43;;;;;;;;;;;;;;;;;;5065365;28;5143;-69
2022/10/12 01:01:09;;;;;;;;;;;;;;;;;;5062651;28;5105;-71
2022/10/12 01:03:34;;;;;;;;;;;;;;;;;;5067397;28;4451;-70
2022/10/12 01:05:59;;;;;;;;;;;;;;;;;;5049867;28;2433;-70
2022/10/12 01:08:25;;;;;;;;;;;;;;;;;;5049782;28;5111;-70
2022/10/12 01:10:50;;;;;;;;;;;;;;;;;;5055867;28;4950;-70
2022/10/12 01:13:15;;;;;;;;;;;;;;;;;;5062520;28;4844;-70
2022/10/12 01:15:53;;;;;;;;;;;;;;;;;;5068121;28;5088;-71
2022/10/12 01:18:20;;;;;;;;;;;;;;;;;;5069232;28;4857;-70
2022/10/12 01:21:05;;;;;;;;;;;;;;;;;;5047051;28;1997;-70
2022/10/12 01:23:30;;;;;;;;;;;;;;;;;;5060478;28;5248;-70
2022/10/12 01:26:04;;;;;;;;;;;;;;;;;;5064541;28;4847;-70
2022/10/12 01:28:34;;;;;;;;;;;;;;;;;;5060409;28;4638;-70
2022/10/12 01:31:03;;;;;;;;;;;;;;;;;;5044883;28;4727;-71
2022/10/12 01:33:28;;;;;;;;;;;;;;;;;;5051104;28;5278;-70
2022/10/12 01:36:06;;;;;;;;;;;;;;;;;;5066202;28;2201;-70
2022/10/12 01:38:40;;;;;;;;;;;;;;;;;;5064590;28;4848;-70
2022/10/12 01:41:11;;;;;;;;;;;;;;;;;;5066575;28;4519;-70
2022/10/12 01:43:37;;;;;;;;;;;;;;;;;;5060079;28;4962;-70
2022/10/12 01:46:26;;;;;;;;;;;;;;;;;;5050778;28;5042;-70
2022/10/12 01:48:56;;;;;;;;;;;;;;;;;;5052507;28;4998;-70
2022/10/12 01:51:23;;;;;;;;;;;;;;;;;;5046232;28;5110;-71
2022/10/12 01:53:51;;;;;;;;;;;;;;;;;;5031479;28;1070;-70
2022/10/12 01:56:19;;;;;;;;;;;;;;;;;;5059996;28;5102;-70
2022/10/12 01:58:53;;;;;;;;;;;;;;;;;;5034788;28;4958;-70
2022/10/12 02:01:24;;;;;;;;;;;;;;;;;;5055691;28;5851;-70
2022/10/12 02:03:58;;;;;;;;;;;;;;;;;;5062677;28;5081;-70
2022/10/12 02:06:26;;;;;;;;;;;;;;;;;;5048651;28;5007;-70
2022/10/12 02:08:55;;;;;;;;;;;;;;;;;;5048650;28;1262;-68
2022/10/12 02:11:22;;;;;;;;;;;;;;;;;;5039869;28;4989;-70
2022/10/12 02:13:52;;;;;;;;;;;;;;;;;;5043044;28;4712;-69
2022/10/12 02:16:18;;;;;;;;;;;;;;;;;;5045963;28;4506;-69
2022/10/12 02:18:44;;;;;;;;;;;;;;;;;;5054480;28;5282;-70
2022/10/12 02:21:10;;;;;;;;;;;;;;;;;;5048089;28;3031;-70
2022/10/12 02:23:35;;;;;;;;;;;;;;;;;;5055234;28;5042;-71
2022/10/12 02:26:00;;;;;;;;;;;;;;;;;;5049831;28;5088;-70
2022/10/12 02:28:26;;;;;;;;;;;;;;;;;;5065431;28;4996;-69
2022/10/12 02:30:53;;;;;;;;;;;;;;;;;;5036818;28;4685;-69
2022/10/12 02:33:33;;;;;;;;;;;;;;;;;;5042658;28;4742;-69
2022/10/12 02:35:59;;;;;;;;;;;;;;;;;;5035934;28;2912;-70
2022/10/12 02:38:27;;;;;;;;;;;;;;;;;;5040224;28;5129;-70
2022/10/12 02:40:54;;;;;;;;;;;;;;;;;;5034521;28;5038;-70
2022/10/12 02:43:33;;;;;;;;;;;;;;;;;;5054165;28;4934;-71
2022/10/12 02:45:59;;;;;;;;;;;;;;;;;;5033253;28;5270;-70
2022/10/12 02:48:24;;;;;;;;;;;;;;;;;;5026961;28;5171;-70
2022/10/12 02:50:53;;;;;;;;;;;;;;;;;;5069127;28;2837;-70
2022/10/12 02:53:18;;;;;;;;;;;;;;;;;;5043302;28;4436;-70
2022/10/12 02:55:50;;;;;;;;;;;;;;;;;;5058465;28;5100;-70
2022/10/12 02:58:15;;;;;;;;;;;;;;;;;;5067670;28;4767;-70
2022/10/12 03:00:41;;;;;;;;;;;;;;;;;;5071232;28;5169;-70
2022/10/12 03:03:06;;;;;;;;;;;;;;;;;;5071237;28;2164;-71
2022/10/12 03:05:31;;;;;;;;;;;;;;;;;;5059086;28;4908;-71
2022/10/12 03:07:56;;;;;;;;;;;;;;;;;;5039926;28;4459;-71
2022/10/12 03:10:21;;;;;;;;;;;;;;;;;;5069286;28;4878;-70
2022/10/12 03:12:47;;;;;;;;;;;;;;;;;;5065942;28;4968;-72
2022/10/12 03:15:13;;;;;;;;;;;;;;;;;;5070708;28;3086;-70
2022/10/12 03:17:38;;;;;;;;;;;;;;;;;;5059243;28;4965;-71
2022/10/12 03:20:03;;;;;;;;;;;;;;;;;;5057015;28;5071;-71
2022/10/12 03:22:28;;;;;;;;;;;;;;;;;;5077629;28;4995;-71
2022/10/12 03:24:54;;;;;;;;;;;;;;;;;;5058188;28;5037;-70
2022/10/12 03:27:19;;;;;;;;;;;;;;;;;;5068508;28;4994;-70
2022/10/12 03:29:44;;;;;;;;;;;;;;;;;;5071268;28;2180;-70
2022/10/12 03:32:10;;;;;;;;;;;;;;;;;;5063169;28;4503;-69
2022/10/12 03:34:35;;;;;;;;;;;;;;;;;;5068205;28;4414;-70
2022/10/12 03:37:00;;;;;;;;;;;;;;;;;;5067792;28;5083;-70
2022/10/12 03:39:25;;;;;;;;;;;;;;;;;;5064503;28;4507;-69
2022/10/12 03:41:50;;;;;;;;;;;;;;;;;;5070204;28;3195;-69
2022/10/12 03:44:16;;;;;;;;;;;;;;;;;;5043343;28;4543;-70
2022/10/12 03:46:41;;;;;;;;;;;;;;;;;;5062658;28;4453;-70
2022/10/12 03:49:06;;;;;;;;;;;;;;;;;;5066185;28;5008;-71
2022/10/12 03:51:31;;;;;;;;;;;;;;;;;;5071884;28;4866;-70
2022/10/12 03:53:57;;;;;;;;;;;;;;;;;;5067241;28;2891;-70
2022/10/12 03:56:22;;;;;;;;;;;;;;;;;;5067105;28;5045;-70
2022/10/12 03:58:47;;;;;;;;;;;;;;;;;;5052657;28;4840;-70
2022/10/12 04:01:12;;;;;;;;;;;;;;;;;;5062660;28;5118;-70
2022/10/12 04:03:38;;;;;;;;;;;;;;;;;;5070378;28;5115;-71
2022/10/12 04:06:03;;;;;;;;;;;;;;;;;;5057634;28;1198;-71
2022/10/12 04:08:29;;;;;;;;;;;;;;;;;;5050669;28;5071;-70
2022/10/12 04:10:55;;;;;;;;;;;;;;;;;;5036951;28;5044;-71
2022/10/12 04:13:20;;;;;;;;;;;;;;;;;;5041482;28;4484;-70
2022/10/12 04:15:45;;;;;;;;;;;;;;;;;;5014641;28;5086;-70
2022/10/12 04:18:11;;;;;;;;;;;;;;;;;;5032398;28;2763;-70
2022/10/12 04:20:36;;;;;;;;;;;;;;;;;;5020101;28;5013;-70
2022/10/12 04:23:01;;;;;;;;;;;;;;;;;;5045991;28;5024;-70
2022/10/12 04:25:26;;;;;;;;;;;;;;;;;;5043919;28;5046;-69
2022/10/12 04:27:52;;;;;;;;;;;;;;;;;;5049927;28;5111;-70
2022/10/12 04:30:17;;;;;;;;;;;;;;;;;;5046532;28;5116;-70
2022/10/12 04:32:43;;;;;;;;;;;;;;;;;;5059448;28;1208;-70
2022/10/12 04:35:08;;;;;;;;;;;;;;;;;;5054706;28;4991;-70
2022/10/12 04:37:33;;;;;;;;;;;;;;;;;;5064344;28;4653;-70
2022/10/12 04:39:58;;;;;;;;;;;;;;;;;;5056684;28;4869;-71
2022/10/12 04:42:24;;;;;;;;;;;;;;;;;;5041081;28;4481;-70
2022/10/12 04:44:49;;;;;;;;;;;;;;;;;;5057509;28;3214;-70
2022/10/12 04:47:14;;;;;;;;;;;;;;;;;;5059979;28;4541;-70
2022/10/12 04:49:40;;;;;;;;;;;;;;;;;;5039649;28;5010;-70
2022/10/12 04:52:05;;;;;;;;;;;;;;;;;;5041470;28;5111;-70
2022/10/12 04:54:31;;;;;;;;;;;;;;;;;;5053730;28;5135;-70
2022/10/12 04:56:57;;;;;;;;;;;;;;;;;;5063050;28;1112;-70
2022/10/12 04:59:29;;;;;;;;;;;;;;;;;;5049315;28;5010;-70
2022/10/12 05:01:54;;;;;;;;;;;;;;;;;;5063851;28;5008;-71
2022/10/12 05:04:20;;;;;;;;;;;;;;;;;;5049843;28;4884;-71
2022/10/12 05:06:52;;;;;;;;;;;;;;;;;;5053953;28;4725;-70
2022/10/12 05:09:17;;;;;;;;;;;;;;;;;;5065819;28;4689;-70
2022/10/12 05:11:42;;;;;;;;;;;;;;;;;;5065463;28;3106;-71
2022/10/12 05:14:08;;;;;;;;;;;;;;;;;;5036188;28;4460;-70
2022/10/12 05:16:33;;;;;;;;;;;;;;;;;;5059956;28;5100;-70
2022/10/12 05:18:58;;;;;;;;;;;;;;;;;;5060842;28;4943;-69
2022/10/12 05:21:24;;;;;;;;;;;;;;;;;;5058359;28;5122;-71
2022/10/12 05:23:50;;;;;;;;;;;;;;;;;;5054628;28;1960;-69
2022/10/12 05:26:15;;;;;;;;;;;;;;;;;;5057903;28;5312;-69
2022/10/12 05:28:41;;;;;;;;;;;;;;;;;;5067148;28;4936;-69
2022/10/12 05:31:06;;;;;;;;;;;;;;;;;;5043731;28;5117;-70
2022/10/12 05:33:31;;;;;;;;;;;;;;;;;;5052512;28;4866;-69
2022/10/12 05:35:56;;;;;;;;;;;;;;;;;;5055628;28;3291;-69
2022/10/12 05:38:22;;;;;;;;;;;;;;;;;;5060629;28;5244;-69
2022/10/12 05:40:47;;;;;;;;;;;;;;;;;;5061489;28;4487;-70
2022/10/12 05:43:12;;;;;;;;;;;;;;;;;;5062254;28;5160;-71
2022/10/12 05:45:37;;;;;;;;;;;;;;;;;;5061501;28;5372;-72
2022/10/12 05:48:03;;;;;;;;;;;;;;;;;;5055846;28;3013;-70
2022/10/12 05:50:28;;;;;;;;;;;;;;;;;;5051939;28;4470;-69
2022/10/12 05:52:53;;;;;;;;;;;;;;;;;;5054007;28;4895;-68
2022/10/12 05:55:18;;;;;;;;;;;;;;;;;;5046596;28;4887;-69
2022/10/12 05:57:44;;;;;;;;;;;;;;;;;;5059260;28;4945;-67
2022/10/12 06:00:09;;;;;;;;;;;;;;;;;;5045441;28;3260;-69
2022/10/12 06:02:34;;;;;;;;;;;;;;;;;;5055673;28;4924;-65
2022/10/12 06:05:00;;;;;;;;;;;;;;;;;;5058050;28;4637;-65
2022/10/12 06:07:25;;;;;;;;;;;;;;;;;;5059421;28;4491;-64
2022/10/12 06:09:51;;;;;;;;;;;;;;;;;;5055950;28;4489;-64
2022/10/12 06:12:16;;;;;;;;;;;;;;;;;;5046866;28;4513;-66
2022/10/12 06:14:41;;;;;;;;;;;;;;;;;;5050527;28;1085;-70
2022/10/12 06:17:08;;;;;;;;;;;;;;;;;;5055471;28;4406;-68
2022/10/12 06:19:33;;;;;;;;;;;;;;;;;;5052893;28;5012;-67
2022/10/12 06:21:58;;;;;;;;;;;;;;;;;;5039848;28;5050;-68
2022/10/12 06:24:24;;;;;;;;;;;;;;;;;;5055778;28;4617;-65
2022/10/12 06:26:49;;;;;;;;;;;;;;;;;;5053210;28;4547;-65
2022/10/12 06:29:14;;;;;;;;;;;;;;;;;;5050890;28;4983;-65
2022/10/12 06:31:39;;;;;;;;;;;;;;;;;;5052000;28;5214;-64
2022/10/12 06:34:05;;;;;;;;;;;;;;;;;;5052449;28;5086;-66
2022/10/12 06:36:30;;;;;;;;;;;;;;;;;;5042217;28;4686;-64
2022/10/12 06:38:55;;;;;;;;;;;;;;;;;;5056160;28;3180;-67
2022/10/12 06:41:21;;;;;;;;;;;;;;;;;;5053010;28;5036;-65
2022/10/12 06:43:46;;;;;;;;;;;;;;;;;;5060800;28;5054;-64
2022/10/12 06:46:11;;;;;;;;;;;;;;;;;;5056967;28;5085;-67
2022/10/12 06:48:36;;;;;;;;;;;;;;;;;;5060572;28;5195;-63
2022/10/12 06:51:02;;;;;;;;;;;;;;;;;;5055433;28;3208;-65
2022/10/12 06:53:29;;;;;;;;;;;;;;;;;;5057487;28;5026;-63
2022/10/12 06:55:55;;;;;;;;;;;;;;;;;;5052677;28;5091;-65
2022/10/12 06:58:20;;;;;;;;;;;;;;;;;;5056323;28;5138;-65
2022/10/12 07:00:45;;;;;;;;;;;;;;;;;;5048524;28;5221;-64
2022/10/12 07:03:11;;;;;;;;;;;;;;;;;;5039252;28;3253;-65
2022/10/12 07:05:36;;;;;;;;;;;;;;;;;;5057114;28;5041;-66
2022/10/12 07:08:01;;;;;;;;;;;;;;;;;;5058698;28;4981;-64
2022/10/12 07:10:27;;;;;;;;;;;;;;;;;;5063859;28;4926;-65
2022/10/12 07:12:52;;;;;;;;;;;;;;;;;;5060885;28;5642;-66
2022/10/12 07:15:17;;;;;;;;;;;;;;;;;;5054291;28;5125;-64
2022/10/12 07:17:43;;;;;;;;;;;;;;;;;;5061805;28;1856;-65
2022/10/12 07:20:08;;;;;;;;;;;;;;;;;;5059113;28;5086;-65
2022/10/12 07:22:33;;;;;;;;;;;;;;;;;;5054721;28;5312;-65
2022/10/12 07:24:58;;;;;;;;;;;;;;;;;;5059551;28;5056;-64
2022/10/12 07:27:24;;;;;;;;;;;;;;;;;;5063650;28;5019;-67
2022/10/12 07:29:49;;;;;;;;;;;;;;;;;;5064680;28;3081;-64
2022/10/12 07:32:14;;;;;;;;;;;;;;;;;;5051708;28;4586;-64
2022/10/12 07:34:41;;;;;;;;;;;;;;;;;;5066525;28;4566;-64
2022/10/12 07:37:06;;;;;;;;;;;;;;;;;;5061659;28;5054;-66
2022/10/12 07:39:31;;;;;;;;;;;;;;;;;;5065217;28;5625;-64
2022/10/12 07:41:57;;;;;;;;;;;;;;;;;;5062960;28;2062;-64
2022/10/12 07:44:23;;;;;;;;;;;;;;;;;;5066489;28;4945;-65
2022/10/12 07:46:48;;;;;;;;;;;;;;;;;;5057955;28;4547;-64
2022/10/12 07:49:14;;;;;;;;;;;;;;;;;;5065782;28;5096;-66
2022/10/12 07:51:39;;;;;;;;;;;;;;;;;;5057603;28;4521;-65
2022/10/12 07:54:04;;;;;;;;;;;;;;;;;;5053621;28;3073;-64
2022/10/12 07:56:29;;;;;;;;;;;;;;;;;;5064124;28;5029;-64
2022/10/12 07:58:55;;;;;;;;;;;;;;;;;;5060729;28;5025;-69
2022/10/12 08:01:21;;;;;;;;;;;;;;;;;;5031506;28;5085;-65
2022/10/12 08:03:47;;;;;;;;;;;;;;;;;;5047368;28;4873;-66
2022/10/12 08:06:13;;;;;;;;;;;;;;;;;;5062712;28;3134;-65
2022/10/12 08:08:38;;;;;;;;;;;;;;;;;;5050880;28;4945;-67
2022/10/12 08:11:04;;;;;;;;;;;;;;;;;;5051857;28;5055;-67
2022/10/12 08:13:29;;;;;;;;;;;;;;;;;;5059429;28;4643;-68
2022/10/12 08:15:55;;;;;;;;;;;;;;;;;;5060257;28;5047;-68
2022/10/12 08:18:20;;;;;;;;;;;;;;;;;;5063329;28;5292;-68
2022/10/12 08:20:45;;;;;;;;;;;;;;;;;;5059385;28;3115;-67
2022/10/12 08:23:11;;;;;;;;;;;;;;;;;;5061141;28;4917;-68
2022/10/12 08:25:36;;;;;;;;;;;;;;;;;;5059972;28;4472;-68
2022/10/12 08:28:02;;;;;;;;;;;;;;;;;;5056360;28;4772;-68
2022/10/12 08:30:27;;;;;;;;;;;;;;;;;;5068763;28;5047;-68
2022/10/12 08:32:53;;;;;;;;;;;;;;;;;;5069379;28;3094;-68
2022/10/12 08:35:18;;;;;;;;;;;;;;;;;;5068951;28;4452;-67
2022/10/12 08:37:43;;;;;;;;;;;;;;;;;;5067828;28;4466;-68
2022/10/12 08:40:18;;;;;;;;;;;;;;;;;;5070026;28;5105;-68
2022/10/12 08:42:58;;;;;;;;;;;;;;;;;;5058722;28;4496;-68
2022/10/12 08:45:28;;;;;;;;;;;;;;;;;;5050407;28;5542;-69
2022/10/12 08:48:03;;;;;;;;;;;;;;;;;;5065431;28;3147;-68
2022/10/12 08:50:33;;;;;;;;;;;;;;;;;;5035498;28;5212;-67
2022/10/12 08:53:04;;;;;;;;;;;;;;;;;;5044721;28;4887;-68
2022/10/12 08:55:38;;;;;;;;;;;;;;;;;;5039168;28;4968;-68
2022/10/12 08:58:04;;;;;;;;;;;;;;;;;;5045920;28;4966;-69
2022/10/12 09:00:30;;;;;;;;;;;;;;;;;;5031468;28;4922;-68
2022/10/12 09:03:27;;;;;;;;;;;;;;;;;;5048976;28;1159;-68
2022/10/12 09:05:56;;;;;;;;;;;;;;;;;;4984999;28;6597;-68
2022/10/12 09:08:24;;;;;;;;;;;;;;;;;;5035255;28;4939;-68
2022/10/12 09:10:53;;;;;;;;;;;;;;;;;;5059963;28;4989;-66
2022/10/12 09:13:57;;;;;;;;;;;;;;;;;;5018877;28;4510;-67
2022/10/12 09:16:24;;;;;;;;;;;;;;;;;;4976626;28;5042;-67
2022/10/12 09:18:51;;;;;;;;;;;;;;;;;;4961986;28;4550;-67
2022/10/12 09:21:17;;;;;;;;;;;;;;;;;;4988239;28;5133;-66
2022/10/12 09:23:43;;;;;;;;;;;;;;;;;;5041285;28;3089;-67
2022/10/12 09:26:14;;;;;;;;;;;;;;;;;;5041436;28;4779;-68
2022/10/12 09:28:56;;;;;;;;;;;;;;;;;;5047288;28;4937;-66
2022/10/12 09:31:33;;;;;;;;;;;;;;;;;;5059788;28;5129;-67
2022/10/12 09:33:59;;;;;;;;;;;;;;;;;;5067815;28;4967;-67
2022/10/12 09:36:25;;;;;;;;;;;;;;;;;;5038018;28;5131;-67
2022/10/12 09:38:50;;;;;;;;;;;;;;;;;;5055555;28;3114;-67
2022/10/12 09:41:23;;;;;;;;;;;;;;;;;;5048801;28;4962;-67
2022/10/12 09:43:49;;;;;;;;;;;;;;;;;;5068106;28;4869;-69
2022/10/12 09:46:14;;;;;;;;;;;;;;;;;;5062809;28;5076;-69
2022/10/12 09:48:48;;;;;;;;;;;;;;;;;;5066516;28;4995;-67
2022/10/12 09:51:15;;;;;;;;;;;;;;;;;;5064727;28;5118;-67
2022/10/12 09:53:42;;;;;;;;;;;;;;;;;;5042822;28;3230;-67
2022/10/12 09:56:12;;;;;;;;;;;;;;;;;;5050700;28;5070;-69
2022/10/12 09:58:53;;;;;;;;;;;;;;;;;;5068825;28;4510;-68
2022/10/12 10:01:26;;;;;;;;;;;;;;;;;;5042011;28;4998;-68
2022/10/12 10:04:11;;;;;;;;;;;;;;;;;;5065861;28;4520;-67
2022/10/12 10:06:36;;;;;;;;;;;;;;;;;;5063278;28;4983;-67
2022/10/12 10:09:02;;;;;;;;;;;;;;;;;;5046127;28;3174;-67
2022/10/12 10:11:29;;;;;;;;;;;;;;;;;;5042176;28;4802;-67
2022/10/12 10:13:55;;;;;;;;;;;;;;;;;;5030586;28;4769;-67
2022/10/12 10:16:21;;;;;;;;;;;;;;;;;;5062834;28;5070;-67
2022/10/12 10:18:56;;;;;;;;;;;;;;;;;;5065353;28;5010;-67
2022/10/12 10:21:26;;;;;;;;;;;;;;;;;;5039445;28;5209;-67
2022/10/12 10:23:57;;;;;;;;;;;;;;;;;;5044906;28;2777;-67
2022/10/12 10:26:23;;;;;;;;;;;;;;;;;;5051191;28;4883;-67
2022/10/12 10:29:14;;;;;;;;;;;;;;;;;;5053669;28;4823;-67
2022/10/12 10:31:39;;;;;;;;;;;;;;;;;;5067913;28;5006;-67
2022/10/12 10:34:17;;;;;;;;;;;;;;;;;;5049105;28;5066;-67
2022/10/12 10:36:46;;;;;;;;;;;;;;;;;;5063694;28;5066;-67
2022/10/12 10:39:22;;;;;;;;;;;;;;;;;;5042133;28;3682;-67
2022/10/12 10:41:47;;;;;;;;;;;;;;;;;;5038659;28;4475;-65
2022/10/12 10:44:22;;;;;;;;;;;;;;;;;;5041309;28;5130;-65
2022/10/12 10:46:47;;;;;;;;;;;;;;;;;;5043691;28;5050;-67
2022/10/12 10:49:36;;;;;;;;;;;;;;;;;;5046475;28;4906;-66
2022/10/12 10:52:01;;;;;;;;;;;;;;;;;;5035124;28;4896;-68
2022/10/12 10:54:28;;;;;;;;;;;;;;;;;;5053560;28;5145;-71
2022/10/12 10:57:16;;;;;;;;;;;;;;;;;;5065087;28;3117;-67
2022/10/12 10:59:46;;;;;;;;;;;;;;;;;;5048935;28;5006;-68
2022/10/12 11:02:18;;;;;;;;;;;;;;;;;;5048333;28;5383;-70
2022/10/12 11:04:45;;;;;;;;;;;;;;;;;;5067674;28;4990;-71
2022/10/12 11:07:30;;;;;;;;;;;;;;;;;;5050454;28;5146;-67
2022/10/12 11:09:56;;;;;;;;;;;;;;;;;;5052659;28;5153;-67
2022/10/12 11:12:41;;;;;;;;;;;;;;;;;;5041453;28;4912;-67
2022/10/12 11:15:17;;;;;;;;;;;;;;;;;;5061582;28;3127;-68
2022/10/12 11:17:44;;;;;;;;;;;;;;;;;;5035527;28;5370;-68
2022/10/12 11:20:22;;;;;;;;;;;;;;;;;;5030368;28;4620;-67
2022/10/12 11:22:54;;;;;;;;;;;;;;;;;;5058153;28;5023;-68
2022/10/12 11:25:19;;;;;;;;;;;;;;;;;;5043512;28;5042;-63
2022/10/12 11:27:44;;;;;;;;;;;;;;;;;;5062150;28;4749;-67
2022/10/12 11:30:17;;;;;;;;;;;;;;;;;;5062553;28;3304;-69
2022/10/12 11:32:44;;;;;;;;;;;;;;;;;;5060128;28;4626;-68
2022/10/12 11:35:12;;;;;;;;;;;;;;;;;;5040562;28;5406;-69
2022/10/12 11:37:41;;;;;;;;;;;;;;;;;;5056921;28;4715;-64
2022/10/12 11:40:08;;;;;;;;;;;;;;;;;;5050460;28;5576;-68
2022/10/12 11:42:36;;;;;;;;;;;;;;;;;;5065824;28;4544;-68
2022/10/12 11:45:02;;;;;;;;;;;;;;;;;;5064362;28;3248;-69
2022/10/12 11:47:38;;;;;;;;;;;;;;;;;;5023471;28;5085;-67
2022/10/12 11:50:14;;;;;;;;;;;;;;;;;;5029173;28;5071;-71
2022/10/12 11:52:43;;;;;;;;;;;;;;;;;;5062050;28;4680;-67
2022/10/12 11:55:27;;;;;;;;;;;;;;;;;;5063035;28;4967;-64
2022/10/12 11:57:53;;;;;;;;;;;;;;;;;;5048652;28;5133;-67
2022/10/12 12:00:22;;;;;;;;;;;;;;;;;;5060738;28;4964;-66
2022/10/12 12:03:06;;;;;;;;;;;;;;;;;;5046908;28;3058;-66
2022/10/12 12:05:32;;;;;;;;;;;;;;;;;;5069812;28;4978;-66
2022/10/12 12:07:57;;;;;;;;;;;;;;;;;;5054342;28;5344;-66
2022/10/12 12:10:26;;;;;;;;;;;;;;;;;;5049948;28;4924;-67
2022/10/12 12:13:11;;;;;;;;;;;;;;;;;;5059717;28;4944;-66
2022/10/12 12:15:37;;;;;;;;;;;;;;;;;;5050016;28;4572;-66
2022/10/12 12:18:03;;;;;;;;;;;;;;;;;;5049925;28;3325;-66
2022/10/12 12:20:43;;;;;;;;;;;;;;;;;;5062037;28;4956;-67
2022/10/12 12:23:28;;;;;;;;;;;;;;;;;;5066140;28;4653;-66
2022/10/12 12:26:03;;;;;;;;;;;;;;;;;;5030757;28;4582;-68
2022/10/12 12:28:28;;;;;;;;;;;;;;;;;;5059500;28;4938;-67
2022/10/12 12:30:57;;;;;;;;;;;;;;;;;;5068394;28;4519;-70
2022/10/12 12:33:22;;;;;;;;;;;;;;;;;;5066612;28;5008;-69
2022/10/12 12:35:54;;;;;;;;;;;;;;;;;;5061074;28;1145;-68
2022/10/12 12:38:32;;;;;;;;;;;;;;;;;;5073916;28;4930;-68
2022/10/12 12:41:06;;;;;;;;;;;;;;;;;;5070041;28;5316;-70
2022/10/12 12:43:31;;;;;;;;;;;;;;;;;;5067012;28;5511;-73
2022/10/12 12:46:04;;;;;;;;;;;;;;;;;;5062979;28;5180;-69
2022/10/12 12:48:41;;;;;;;;;;;;;;;;;;5050577;28;5294;-75
2022/10/12 12:51:10;;;;;;;;;;;;;;;;;;5062553;28;1590;-71
2022/10/12 12:53:55;;;;;;;;;;;;;;;;;;5045378;28;4956;-76
2022/10/12 12:56:33;;;;;;;;;;;;;;;;;;5044482;28;4963;-75
2022/10/12 12:59:11;;;;;;;;;;;;;;;;;;5057791;28;5094;-72
2022/10/12 13:01:39;;;;;;;;;;;;;;;;;;5058686;28;5971;-68
2022/10/12 13:04:30;;;;;;;;;;;;;;;;;;5057328;28;5051;-69
2022/10/12 13:07:05;;;;;;;;;;;;;;;;;;5031859;28;5009;-70
2022/10/12 13:09:33;;;;;;;;;;;;;;;;;;5059153;28;5012;-70
2022/10/12 13:12:17;;;;;;;;;;;;;;;;;;5043335;28;3676;-72
2022/10/12 13:15:08;;;;;;;;;;;;;;;;;;5062726;28;4377;-71
2022/10/12 13:17:40;;;;;;;;;;;;;;;;;;5025473;28;4527;-65
2022/10/12 13:20:10;;;;;;;;;;;;;;;;;;5059130;28;5133;-66
2022/10/12 13:22:35;;;;;;;;;;;;;;;;;;5034738;28;4525;-65
2022/10/12 13:25:01;;;;;;;;;;;;;;;;;;5046455;28;4509;-68
2022/10/12 13:27:32;;;;;;;;;;;;;;;;;;5038496;28;5872;-65
2022/10/12 13:30:12;;;;;;;;;;;;;;;;;;5056275;28;3154;-66
2022/10/12 13:32:43;;;;;;;;;;;;;;;;;;5046596;28;4492;-66
2022/10/12 13:35:29;;;;;;;;;;;;;;;;;;5060019;28;4818;-66
2022/10/12 13:38:01;;;;;;;;;;;;;;;;;;5043181;28;5394;-66
2022/10/12 13:40:36;;;;;;;;;;;;;;;;;;5067710;28;5202;-66
2022/10/12 13:43:20;;;;;;;;;;;;;;;;;;5068079;28;5691;-67
2022/10/12 13:45:46;;;;;;;;;;;;;;;;;;5045793;28;4501;-66
2022/10/12 13:48:15;;;;;;;;;;;;;;;;;;5066783;28;1154;-67
2022/10/12 13:50:48;;;;;;;;;;;;;;;;;;5039899;28;4586;-67
2022/10/12 13:53:14;;;;;;;;;;;;;;;;;;5048292;28;5028;-67
2022/10/12 13:55:39;;;;;;;;;;;;;;;;;;5050219;28;5119;-66
2022/10/12 13:58:17;;;;;;;;;;;;;;;;;;5057678;28;4522;-66
2022/10/12 14:00:45;;;;;;;;;;;;;;;;;;5038842;28;4571;-68
2022/10/12 14:03:10;;;;;;;;;;;;;;;;;;5044818;28;2996;-67
2022/10/12 14:05:44;;;;;;;;;;;;;;;;;;5067595;28;4708;-66
2022/10/12 14:08:10;;;;;;;;;;;;;;;;;;5068251;28;4835;-66
2022/10/12 14:10:48;;;;;;;;;;;;;;;;;;5020083;28;5121;-67
2022/10/12 14:13:32;;;;;;;;;;;;;;;;;;5064071;28;5101;-65
2022/10/12 14:15:58;;;;;;;;;;;;;;;;;;5058014;28;4879;-67
2022/10/12 14:18:34;;;;;;;;;;;;;;;;;;5043212;28;4785;-67
2022/10/12 14:21:05;;;;;;;;;;;;;;;;;;5059786;28;2851;-66
2022/10/12 14:23:31;;;;;;;;;;;;;;;;;;5061216;28;5091;-67
2022/10/12 14:25:56;;;;;;;;;;;;;;;;;;5060724;28;5137;-67
2022/10/12 14:28:34;;;;;;;;;;;;;;;;;;5054081;28;4911;-66
2022/10/12 14:30:59;;;;;;;;;;;;;;;;;;5060429;28;5427;-66
2022/10/12 14:33:24;;;;;;;;;;;;;;;;;;5062044;28;5033;-67
2022/10/12 14:35:50;;;;;;;;;;;;;;;;;;5060711;28;1125;-67
2022/10/12 14:38:34;;;;;;;;;;;;;;;;;;5057276;28;5181;-65
2022/10/12 14:41:18;;;;;;;;;;;;;;;;;;5062798;28;4953;-66
2022/10/12 14:43:43;;;;;;;;;;;;;;;;;;5052735;28;5053;-66
2022/10/12 14:46:08;;;;;;;;;;;;;;;;;;5058180;28;4724;-66
2022/10/12 14:48:34;;;;;;;;;;;;;;;;;;5064264;28;4968;-64
2022/10/12 14:50:59;;;;;;;;;;;;;;;;;;5064733;28;2873;-66
2022/10/12 14:53:28;;;;;;;;;;;;;;;;;;5059594;28;4926;-65
2022/10/12 14:55:53;;;;;;;;;;;;;;;;;;5061189;28;4850;-66
2022/10/12 14:58:18;;;;;;;;;;;;;;;;;;5061485;28;5071;-67
2022/10/12 15:00:43;;;;;;;;;;;;;;;;;;5061151;28;4562;-65
2022/10/12 15:03:09;;;;;;;;;;;;;;;;;;5061792;28;2909;-65
2022/10/12 15:05:34;;;;;;;;;;;;;;;;;;5059495;28;5095;-66
2022/10/12 15:07:59;;;;;;;;;;;;;;;;;;5062212;28;4998;-65
2022/10/12 15:10:25;;;;;;;;;;;;;;;;;;5063781;28;5027;-67
2022/10/12 15:12:50;;;;;;;;;;;;;;;;;;5061135;28;5105;-64
2022/10/12 15:15:25;;;;;;;;;;;;;;;;;;5060740;28;5013;-65
2022/10/12 15:17:50;;;;;;;;;;;;;;;;;;5064270;28;2877;-67
2022/10/12 15:20:15;;;;;;;;;;;;;;;;;;5036601;28;4513;-67
2022/10/12 15:22:40;;;;;;;;;;;;;;;;;;5056232;28;5204;-68
2022/10/12 15:25:13;;;;;;;;;;;;;;;;;;5056149;28;5097;-65
2022/10/12 15:27:38;;;;;;;;;;;;;;;;;;5049100;28;5058;-65
2022/10/12 15:30:04;;;;;;;;;;;;;;;;;;5061901;28;2870;-65
2022/10/12 15:32:29;;;;;;;;;;;;;;;;;;5061166;28;5001;-66
2022/10/12 15:34:54;;;;;;;;;;;;;;;;;;5058520;28;5075;-66
2022/10/12 15:37:20;;;;;;;;;;;;;;;;;;5060356;28;4475;-67
2022/10/12 15:39:45;;;;;;;;;;;;;;;;;;5058870;28;5097;-67
2022/10/12 15:42:10;;;;;;;;;;;;;;;;;;5056154;28;1914;-65
2022/10/12 15:44:39;;;;;;;;;;;;;;;;;;5063622;28;4967;-65
2022/10/12 15:47:04;;;;;;;;;;;;;;;;;;5045217;28;4710;-67
2022/10/12 15:49:30;;;;;;;;;;;;;;;;;;5061980;28;4654;-65
2022/10/12 15:51:55;;;;;;;;;;;;;;;;;;5070224;28;4818;-65
2022/10/12 15:54:20;;;;;;;;;;;;;;;;;;5043876;28;5072;-66
2022/10/12 15:56:46;;;;;;;;;;;;;;;;;;5066661;28;1111;-66
2022/10/12 15:59:11;;;;;;;;;;;;;;;;;;5070870;28;4942;-65
2022/10/12 16:01:36;;;;;;;;;;;;;;;;;;5061618;28;5129;-66
2022/10/12 16:04:02;;;;;;;;;;;;;;;;;;5064092;28;5116;-64
2022/10/12 16:06:27;;;;;;;;;;;;;;;;;;5043022;28;4519;-64
2022/10/12 16:08:52;;;;;;;;;;;;;;;;;;5065738;28;3049;-66
2022/10/12 16:11:18;;;;;;;;;;;;;;;;;;5063141;28;4809;-68
2022/10/12 16:13:44;;;;;;;;;;;;;;;;;;5059636;28;4490;-66
2022/10/12 16:16:10;;;;;;;;;;;;;;;;;;5064178;28;5154;-70
2022/10/12 16:18:35;;;;;;;;;;;;;;;;;;5059486;28;5029;-66
2022/10/12 16:21:00;;;;;;;;;;;;;;;;;;5054238;28;3217;-71
2022/10/12 16:23:27;;;;;;;;;;;;;;;;;;5064963;28;5213;-74
2022/10/12 16:25:52;;;;;;;;;;;;;;;;;;5067946;28;4655;-77
2022/10/12 16:28:17;;;;;;;;;;;;;;;;;;5061884;28;5061;-67
2022/10/12 16:30:43;;;;;;;;;;;;;;;;;;5060712;28;5029;-72
2022/10/12 16:33:08;;;;;;;;;;;;;;;;;;5060303;28;3185;-63
2022/10/12 16:35:33;;;;;;;;;;;;;;;;;;5058002;28;4837;-69
2022/10/12 16:37:59;;;;;;;;;;;;;;;;;;5051506;28;4515;-65
2022/10/12 16:40:24;;;;;;;;;;;;;;;;;;5059199;28;4915;-67
2022/10/12 16:42:51;;;;;;;;;;;;;;;;;;5063659;28;4768;-67
2022/10/12 16:45:17;;;;;;;;;;;;;;;;;;5044311;28;5176;-70
2022/10/12 16:47:42;;;;;;;;;;;;;;;;;;5061150;28;3279;-67
2022/10/12 16:50:07;;;;;;;;;;;;;;;;;;5063031;28;5055;-66
2022/10/12 16:52:33;;;;;;;;;;;;;;;;;;5064838;28;5303;-69
2022/10/12 16:54:58;;;;;;;;;;;;;;;;;;5058043;28;5060;-67
2022/10/12 16:57:23;;;;;;;;;;;;;;;;;;5042631;28;5127;-69
2022/10/12 16:59:49;;;;;;;;;;;;;;;;;;5060397;28;1216;-66
2022/10/12 17:02:14;;;;;;;;;;;;;;;;;;5058753;28;4838;-64
2022/10/12 17:04:39;;;;;;;;;;;;;;;;;;5064666;28;4999;-64
2022/10/12 17:07:05;;;;;;;;;;;;;;;;;;5060433;28;4527;-64
2022/10/12 17:09:30;;;;;;;;;;;;;;;;;;5050765;28;4928;-66